createdAt,value
2023-03-08T00:01:37.650Z,66.61
2023-03-08T00:04:06.784Z,66.40
2023-03-08T00:06:36.284Z,66.40
2023-03-08T00:09:04.960Z,66.30
2023-03-08T00:11:34.072Z,66.34
2023-03-08T00:14:03.545Z,66.31
2023-03-08T00:16:32.118Z,66.68
2023-03-08T00:19:00.857Z,66.68
2023-03-08T00:21:29.998Z,66.64
2023-03-08T00:23:58.636Z,66.68
2023-03-08T00:26:27.369Z,66.95
2023-03-08T00:28:57.141Z,66.78
2023-03-08T00:31:25.774Z,66.92
2023-03-08T00:33:56.162Z,66.90
2023-03-08T00:36:25.334Z,67.63
2023-03-08T00:38:54.268Z,67.36
2023-03-08T00:41:23.791Z,67.65
2023-03-08T00:43:52.669Z,67.86
2023-03-08T00:46:21.717Z,67.68
2023-03-08T00:48:50.361Z,67.53
2023-03-08T00:51:21.115Z,67.69
2023-03-08T00:53:50.144Z,67.79
2023-03-08T00:56:19.187Z,68.65
2023-03-08T00:58:48.176Z,68.13
2023-03-08T01:01:19.029Z,68.70
2023-03-08T01:03:51.206Z,68.84
2023-03-08T01:06:20.207Z,68.70
2023-03-08T01:08:48.791Z,68.42
2023-03-08T01:11:23.537Z,68.70
2023-03-08T01:13:53.910Z,68.70
2023-03-08T01:16:26.284Z,68.42
2023-03-08T01:18:56.022Z,68.50
2023-03-08T01:21:25.567Z,68.49
2023-03-08T01:23:54.999Z,68.82
2023-03-08T01:26:26.684Z,68.74
2023-03-08T01:28:59.306Z,68.63
2023-03-08T01:31:30.613Z,68.59
2023-03-08T01:34:01.818Z,68.47
2023-03-08T01:36:30.972Z,68.76
2023-03-08T01:39:02.890Z,68.57
2023-03-08T01:41:32.603Z,68.73
2023-03-08T01:44:02.579Z,68.61
2023-03-08T01:46:38.255Z,68.96
2023-03-08T01:49:37.178Z,69.12
2023-03-08T01:52:15.533Z,69.02
2023-03-08T01:54:48.289Z,69.31
2023-03-08T01:57:33.665Z,69.25
2023-03-08T02:00:11.823Z,69.56
2023-03-08T02:03:10.113Z,69.60
2023-03-08T02:05:44.398Z,69.55
2023-03-08T02:08:22.539Z,69.42
2023-03-08T02:10:51.690Z,69.25
2023-03-08T02:13:21.791Z,69.36
2023-03-08T02:15:52.955Z,69.29
2023-03-08T02:18:22.333Z,69.61
2023-03-08T02:20:51.801Z,69.46
2023-03-08T02:23:23.203Z,69.27
2023-03-08T02:25:53.616Z,69.62
2023-03-08T02:28:25.849Z,69.35
2023-03-08T02:30:56.036Z,69.75
2023-03-08T02:33:24.890Z,69.67
2023-03-08T02:35:53.812Z,69.75
2023-03-08T02:38:22.653Z,69.66
2023-03-08T02:40:53.223Z,69.43
2023-03-08T02:43:22.381Z,69.59
2023-03-08T02:45:51.147Z,69.55
2023-03-08T02:48:20.607Z,69.44
2023-03-08T02:50:49.587Z,69.53
2023-03-08T02:53:18.508Z,69.91
2023-03-08T02:55:47.403Z,69.59
2023-03-08T02:58:16.351Z,69.68
2023-03-08T03:00:45.526Z,69.93
2023-03-08T03:03:14.286Z,69.51
2023-03-08T03:05:44.357Z,69.78
2023-03-08T03:08:16.530Z,69.84
2023-03-08T03:10:45.558Z,69.87
2023-03-08T03:13:15.187Z,69.76
2023-03-08T03:15:43.904Z,69.97
2023-03-08T03:18:12.917Z,69.95
2023-03-08T03:20:41.445Z,69.92
2023-03-08T03:23:10.958Z,69.87
2023-03-08T03:25:44.883Z,69.92
2023-03-08T03:28:15.823Z,70.07
2023-03-08T03:30:45.010Z,70.19
2023-03-08T03:33:14.810Z,70.16
2023-03-08T03:35:44.740Z,70.11
2023-03-08T03:38:13.405Z,70.27
2023-03-08T03:40:43.076Z,70.45
2023-03-08T03:43:12.106Z,70.65
2023-03-08T03:45:40.751Z,70.48
2023-03-08T03:48:10.362Z,70.58
2023-03-08T03:50:39.438Z,70.31
2023-03-08T03:53:12.615Z,70.44
2023-03-08T03:55:41.684Z,70.42
2023-03-08T03:58:10.479Z,70.31
2023-03-08T04:00:40.081Z,70.43
2023-03-08T04:03:23.327Z,70.35
2023-03-08T04:05:52.981Z,70.30
2023-03-08T04:08:22.405Z,70.39
2023-03-08T04:10:51.314Z,70.40
2023-03-08T04:13:20.616Z,70.44
2023-03-08T04:15:49.248Z,70.30
2023-03-08T04:18:18.273Z,70.41
2023-03-08T04:20:47.480Z,70.50
2023-03-08T04:23:16.237Z,70.39
2023-03-08T04:25:47.802Z,70.52
2023-03-08T04:28:17.412Z,70.50
2023-03-08T04:30:46.748Z,70.51
2023-03-08T04:33:17.169Z,70.23
2023-03-08T04:35:50.114Z,70.33
2023-03-08T04:38:20.137Z,70.35
2023-03-08T04:41:08.516Z,70.25
2023-03-08T04:43:57.692Z,70.44
2023-03-08T04:46:34.808Z,70.57
2023-03-08T04:49:03.847Z,70.60
2023-03-08T04:51:36.726Z,70.52
2023-03-08T04:54:06.481Z,70.48
2023-03-08T04:56:36.492Z,70.49
2023-03-08T04:59:05.472Z,70.71
2023-03-08T05:01:34.659Z,70.58
2023-03-08T05:04:03.991Z,70.70
2023-03-08T05:06:37.320Z,70.54
2023-03-08T05:09:06.532Z,70.49
2023-03-08T05:11:35.587Z,70.44
2023-03-08T05:14:05.513Z,70.65
2023-03-08T05:16:34.654Z,70.59
2023-03-08T05:19:04.223Z,70.53
2023-03-08T05:21:37.646Z,70.46
2023-03-08T05:24:06.668Z,70.52
2023-03-08T05:26:36.321Z,70.79
2023-03-08T05:29:07.384Z,70.64
2023-03-08T05:31:40.318Z,70.72
2023-03-08T05:34:11.911Z,70.74
2023-03-08T05:36:43.232Z,70.71
2023-03-08T05:39:13.249Z,70.77
2023-03-08T05:41:54.163Z,70.64
2023-03-08T05:44:29.571Z,70.58
2023-03-08T05:46:59.229Z,70.65
2023-03-08T05:49:28.308Z,70.71
2023-03-08T05:51:58.786Z,70.75
2023-03-08T05:54:27.981Z,70.82
2023-03-08T05:57:00.039Z,70.70
2023-03-08T05:59:28.815Z,70.91
2023-03-08T06:02:01.001Z,70.78
2023-03-08T06:04:36.962Z,70.80
2023-03-08T06:07:06.365Z,70.77
2023-03-08T06:09:38.247Z,70.97
2023-03-08T06:12:08.505Z,70.62
2023-03-08T06:14:37.460Z,70.74
2023-03-08T06:17:06.918Z,70.76
2023-03-08T06:19:37.349Z,70.68
2023-03-08T06:22:05.856Z,70.71
2023-03-08T06:24:34.770Z,70.80
2023-03-08T06:27:04.546Z,70.59
2023-03-08T06:29:33.375Z,70.55
2023-03-08T06:32:03.582Z,70.90
2023-03-08T06:34:33.383Z,70.90
2023-03-08T06:37:02.242Z,70.88
2023-03-08T06:39:32.017Z,70.83
2023-03-08T06:42:03.378Z,70.72
2023-03-08T06:44:32.376Z,70.73
2023-03-08T06:47:00.967Z,70.67
2023-03-08T06:49:30.345Z,70.76
2023-03-08T06:51:58.891Z,70.79
2023-03-08T06:54:28.267Z,70.83
2023-03-08T06:56:58.114Z,70.89
2023-03-08T06:59:26.691Z,70.99
2023-03-08T07:01:55.201Z,70.96
2023-03-08T07:04:24.539Z,70.92
2023-03-08T07:06:53.212Z,70.97
2023-03-08T07:09:21.804Z,70.91
2023-03-08T07:11:51.054Z,70.97
2023-03-08T07:14:19.861Z,70.61
2023-03-08T07:16:48.956Z,70.85
2023-03-08T07:19:17.879Z,70.84
2023-03-08T07:21:46.707Z,70.97
2023-03-08T07:24:15.330Z,71.05
2023-03-08T07:26:44.264Z,70.93
2023-03-08T07:29:13.130Z,71.02
2023-03-08T07:31:41.796Z,71.10
2023-03-08T07:34:10.870Z,71.13
2023-03-08T07:40:29.569Z,71.10
2023-03-08T07:42:58.812Z,71.11
2023-03-08T07:45:40.337Z,71.20
2023-03-08T07:48:09.061Z,71.14
2023-03-08T07:50:37.583Z,71.18
2023-03-08T07:53:08.198Z,71.19
2023-03-08T07:55:38.748Z,71.12
2023-03-08T07:58:07.659Z,71.14
2023-03-08T08:00:36.324Z,71.05
2023-03-08T08:03:05.120Z,71.17
2023-03-08T08:05:36.351Z,71.17
2023-03-08T08:08:05.616Z,71.17
2023-03-08T08:10:34.545Z,71.22
2023-03-08T08:13:03.846Z,71.22
2023-03-08T08:15:33.612Z,71.13
2023-03-08T08:18:02.853Z,71.09
2023-03-08T08:20:31.529Z,70.92
2023-03-08T08:23:00.296Z,71.00
2023-03-08T08:25:29.798Z,71.12
2023-03-08T08:27:58.470Z,71.16
2023-03-08T08:30:27.365Z,70.98
2023-03-08T08:32:57.718Z,70.77
2023-03-08T08:35:40.827Z,70.89
2023-03-08T08:38:11.970Z,70.88
2023-03-08T08:40:41.311Z,70.94
2023-03-08T08:43:09.921Z,71.32
2023-03-08T08:45:44.971Z,71.00
2023-03-08T08:48:15.942Z,71.41
2023-03-08T08:50:59.414Z,71.00
2023-03-08T08:53:31.508Z,71.20
2023-03-08T08:56:26.215Z,71.33
2023-03-08T08:59:03.534Z,71.10
2023-03-08T09:01:34.799Z,71.19
2023-03-08T09:04:13.517Z,71.01
2023-03-08T09:06:48.914Z,71.03
2023-03-08T09:09:18.584Z,71.02
2023-03-08T09:11:54.981Z,71.07
2023-03-08T09:14:26.049Z,71.19
2023-03-08T09:16:55.315Z,71.21
2023-03-08T09:19:24.064Z,70.95
2023-03-08T09:21:53.612Z,71.17
2023-03-08T09:24:22.556Z,71.20
2023-03-08T09:26:51.113Z,70.88
2023-03-08T09:29:19.703Z,71.25
2023-03-08T09:31:58.973Z,70.87
2023-03-08T09:34:30.725Z,70.82
2023-03-08T09:37:00.012Z,70.92
2023-03-08T09:39:28.655Z,70.82
2023-03-08T09:42:00.854Z,71.01
2023-03-08T09:44:54.072Z,70.92
2023-03-08T09:47:33.838Z,71.06
2023-03-08T09:50:10.397Z,70.74
2023-03-08T09:53:05.847Z,70.78
2023-03-08T09:55:37.872Z,70.70
2023-03-08T09:58:20.153Z,70.54
2023-03-08T10:01:00.725Z,70.49
2023-03-08T10:03:54.766Z,70.52
2023-03-08T10:07:04.211Z,70.39
2023-03-08T10:09:37.467Z,70.51
2023-03-08T10:12:42.921Z,70.53
2023-03-08T10:15:18.181Z,70.77
2023-03-08T10:17:54.403Z,70.77
2023-03-08T10:20:33.193Z,70.55
2023-03-08T10:23:13.519Z,70.38
2023-03-08T10:25:43.280Z,70.04
2023-03-08T10:28:16.375Z,69.71
2023-03-08T10:30:58.910Z,70.08
2023-03-08T10:33:33.881Z,69.92
2023-03-08T10:36:18.250Z,69.76
2023-03-08T10:38:59.901Z,70.22
2023-03-08T10:42:24.358Z,69.93
2023-03-08T10:45:42.518Z,70.01
2023-03-08T10:48:22.008Z,70.08
2023-03-08T10:51:00.441Z,69.87
2023-03-08T10:53:31.140Z,69.88
2023-03-08T10:56:01.782Z,70.08
2023-03-08T10:58:39.396Z,70.03
2023-03-08T11:01:24.657Z,69.83
2023-03-08T11:04:04.935Z,70.07
2023-03-08T11:06:37.932Z,70.12
2023-03-08T11:09:21.972Z,70.13
2023-03-08T11:11:50.665Z,70.01
2023-03-08T11:14:19.711Z,69.92
2023-03-08T11:17:25.647Z,69.96
2023-03-08T11:20:10.102Z,69.85
2023-03-08T11:22:56.583Z,70.04
2023-03-08T11:26:03.462Z,70.11
2023-03-08T11:29:15.057Z,69.97
2023-03-08T11:32:15.010Z,70.02
2023-03-08T11:35:04.597Z,70.11
2023-03-08T11:37:50.047Z,70.06
2023-03-08T11:40:38.205Z,70.15
2023-03-08T11:43:21.376Z,69.94
2023-03-08T11:46:03.798Z,69.80
2023-03-08T11:48:56.621Z,69.77
2023-03-08T11:51:50.897Z,69.87
2023-03-08T11:54:28.198Z,69.88
2023-03-08T11:57:03.677Z,69.99
2023-03-08T11:59:48.034Z,69.84
2023-03-08T12:02:22.660Z,69.43
2023-03-08T12:04:57.302Z,69.25
2023-03-08T12:07:48.488Z,69.00
2023-03-08T12:10:26.264Z,69.24
2023-03-08T12:13:21.270Z,69.43
2023-03-08T12:16:14.081Z,68.91
2023-03-08T12:19:07.709Z,69.27
2023-03-08T12:21:44.920Z,68.96
2023-03-08T12:24:27.524Z,68.55
2023-03-08T12:27:02.588Z,68.32
2023-03-08T12:29:56.289Z,67.99
2023-03-08T12:32:26.566Z,68.40
2023-03-08T12:35:26.004Z,68.32
2023-03-08T12:38:02.217Z,68.08
2023-03-08T12:40:46.621Z,68.16
2023-03-08T12:43:36.437Z,67.51
2023-03-08T12:46:10.389Z,67.98
2023-03-08T12:48:49.462Z,68.16
2023-03-08T12:51:30.509Z,68.09
2023-03-08T12:54:04.729Z,67.93
2023-03-08T12:56:36.524Z,67.99
2023-03-08T12:59:11.866Z,68.09
2023-03-08T13:01:43.949Z,67.78
2023-03-08T13:04:41.963Z,67.25
2023-03-08T13:07:11.605Z,67.42
2023-03-08T13:09:43.621Z,67.43
2023-03-08T13:12:23.532Z,67.46
2023-03-08T13:15:22.512Z,67.52
2023-03-08T13:18:00.116Z,67.77
2023-03-08T13:20:35.674Z,67.60
2023-03-08T13:23:13.877Z,67.85
2023-03-08T13:25:57.227Z,67.53
2023-03-08T13:28:46.190Z,67.16
2023-03-08T13:31:34.459Z,67.02
2023-03-08T13:34:03.800Z,66.66
2023-03-08T13:36:34.438Z,66.90
2023-03-08T13:39:06.657Z,66.93
2023-03-08T13:41:37.435Z,66.76
2023-03-08T13:44:15.442Z,66.59
2023-03-08T13:46:47.021Z,66.21
2023-03-08T13:49:31.725Z,66.37
2023-03-08T13:52:03.942Z,66.27
2023-03-08T13:54:37.322Z,66.57
2023-03-08T13:57:17.975Z,66.52
2023-03-08T13:59:52.314Z,66.25
2023-03-08T14:02:25.475Z,66.24
2023-03-08T14:04:54.740Z,65.86
2023-03-08T14:07:28.634Z,66.04
2023-03-08T14:09:58.792Z,66.03
2023-03-08T14:12:31.706Z,66.03
2023-03-08T14:15:06.144Z,65.84
2023-03-08T14:17:36.289Z,65.92
2023-03-08T14:20:19.744Z,65.86
2023-03-08T14:22:53.903Z,65.94
2023-03-08T14:25:24.933Z,66.05
2023-03-08T14:27:53.915Z,66.16
2023-03-08T14:30:26.500Z,66.13
2023-03-08T14:33:00.929Z,66.23
2023-03-08T14:35:33.961Z,66.15
2023-03-08T14:38:04.252Z,66.20
2023-03-08T14:40:36.089Z,66.22
2023-03-08T14:43:27.997Z,66.13
2023-03-08T14:46:06.963Z,66.32
2023-03-08T14:48:38.393Z,66.42
2023-03-08T14:51:28.668Z,66.31
2023-03-08T14:53:59.290Z,66.43
2023-03-08T14:56:30.536Z,66.41
2023-03-08T14:59:01.694Z,66.56
2023-03-08T15:01:36.976Z,66.54
2023-03-08T15:04:26.566Z,66.55
2023-03-08T15:06:55.803Z,66.85
2023-03-08T15:09:26.502Z,66.72
2023-03-08T15:12:00.556Z,66.65
2023-03-08T15:14:30.906Z,66.68
2023-03-08T15:17:00.457Z,67.02
2023-03-08T15:19:29.118Z,67.08
2023-03-08T15:21:58.678Z,66.93
2023-03-08T15:24:28.415Z,66.90
2023-03-08T15:26:57.715Z,66.89
2023-03-08T15:29:28.053Z,67.02
2023-03-08T15:31:57.060Z,67.04
2023-03-08T15:34:28.195Z,67.09
2023-03-08T15:36:57.524Z,67.10
2023-03-08T15:39:26.187Z,67.21
2023-03-08T15:41:55.075Z,67.36
2023-03-08T15:44:23.976Z,67.13
2023-03-08T15:46:53.049Z,67.33
2023-03-08T15:49:22.067Z,67.57
2023-03-08T15:51:51.177Z,67.36
2023-03-08T15:54:19.851Z,67.35
2023-03-08T16:01:19.347Z,67.65
2023-03-08T16:03:53.468Z,67.65
2023-03-08T16:06:23.193Z,67.48
2023-03-08T16:08:52.149Z,67.48
2023-03-08T16:11:22.647Z,67.53
2023-03-08T16:13:53.092Z,67.60
2023-03-08T16:16:23.441Z,67.77
2023-03-08T16:18:57.059Z,67.79
2023-03-08T16:21:26.044Z,67.73
2023-03-08T16:23:54.666Z,67.75
2023-03-08T16:26:24.738Z,67.86
2023-03-08T16:28:53.551Z,67.81
2023-03-08T16:31:23.109Z,67.89
2023-03-08T16:33:52.282Z,67.79
2023-03-08T16:36:21.270Z,67.88
2023-03-08T16:38:49.858Z,67.86
2023-03-08T16:41:19.149Z,67.94
2023-03-08T16:43:48.652Z,68.08
2023-03-08T16:46:20.980Z,68.28
2023-03-08T16:48:54.569Z,68.20
2023-03-08T16:51:26.118Z,68.25
2023-03-08T16:53:55.142Z,68.35
2023-03-08T16:56:35.036Z,68.49
2023-03-08T16:59:04.304Z,68.40
2023-03-08T17:01:33.951Z,68.46
2023-03-08T17:04:02.680Z,68.61
2023-03-08T17:06:32.929Z,68.67
2023-03-08T17:09:01.820Z,68.60
2023-03-08T17:11:33.203Z,68.43
2023-03-08T17:14:07.670Z,68.65
2023-03-08T17:16:37.472Z,68.74
2023-03-08T17:19:08.181Z,68.79
2023-03-08T17:21:39.118Z,68.72
2023-03-08T17:24:11.480Z,68.77
2023-03-08T17:26:50.611Z,68.78
2023-03-08T17:29:19.828Z,68.93
2023-03-08T17:31:52.684Z,68.96
2023-03-08T17:34:23.362Z,68.78
2023-03-08T17:36:52.159Z,68.88
2023-03-08T17:39:21.094Z,68.71
2023-03-08T17:41:50.059Z,68.80
2023-03-08T17:44:18.831Z,68.70
2023-03-08T17:46:48.076Z,68.98
2023-03-08T17:49:23.405Z,68.88
2023-03-08T17:51:53.956Z,69.14
2023-03-08T17:54:23.484Z,69.22
2023-03-08T17:56:52.387Z,69.25
2023-03-08T17:59:21.800Z,69.31
2023-03-08T18:01:50.664Z,69.47
2023-03-08T18:04:39.625Z,69.51
2023-03-08T18:07:34.264Z,69.43
2023-03-08T18:10:19.909Z,69.46
2023-03-08T18:13:15.174Z,69.41
2023-03-08T18:16:05.534Z,69.36
2023-03-08T18:18:57.567Z,69.34
2023-03-08T18:22:06.464Z,69.48
2023-03-08T18:24:51.682Z,69.67
2023-03-08T18:27:50.415Z,69.76
2023-03-08T18:30:35.823Z,69.86
2023-03-08T18:33:24.269Z,69.78
2023-03-08T18:36:14.235Z,69.88
2023-03-08T18:39:20.078Z,69.70
2023-03-08T18:42:07.435Z,69.58
2023-03-08T18:44:44.280Z,69.53
2023-03-08T18:47:13.223Z,69.56
2023-03-08T18:49:43.824Z,69.54
2023-03-08T18:52:12.905Z,69.74
2023-03-08T18:54:41.790Z,69.69
2023-03-08T18:57:12.205Z,69.88
2023-03-08T18:59:41.971Z,69.90
2023-03-08T19:02:12.442Z,69.98
2023-03-08T19:04:43.351Z,70.04
2023-03-08T19:07:13.460Z,70.07
2023-03-08T19:09:47.126Z,70.18
2023-03-08T19:12:16.424Z,70.13
2023-03-08T19:14:48.642Z,70.22
2023-03-08T19:17:17.705Z,70.20
2023-03-08T19:19:46.582Z,70.37
2023-03-08T19:22:16.021Z,70.42
2023-03-08T19:24:44.884Z,70.38
2023-03-08T19:27:14.026Z,70.46
2023-03-08T19:29:43.203Z,70.56
2023-03-08T19:32:16.194Z,70.52
2023-03-08T19:34:45.481Z,70.57
2023-03-08T19:37:15.388Z,70.66
2023-03-08T19:39:43.925Z,70.71
2023-03-08T19:42:16.897Z,70.73
2023-03-08T19:44:48.637Z,70.78
2023-03-08T19:47:18.741Z,70.87
2023-03-08T19:49:48.393Z,70.82
2023-03-08T19:52:19.923Z,70.95
2023-03-08T19:54:49.197Z,71.04
2023-03-08T19:57:17.902Z,70.96
2023-03-08T19:59:46.770Z,70.92
2023-03-08T20:02:17.032Z,71.00
2023-03-08T20:04:46.346Z,70.91
2023-03-08T20:07:15.199Z,70.79
2023-03-08T20:09:44.416Z,70.72
2023-03-08T20:12:13.085Z,70.74
2023-03-08T20:14:41.917Z,70.78
2023-03-08T20:17:12.580Z,70.96
2023-03-08T20:19:41.142Z,70.97
2023-03-08T20:22:11.328Z,70.96
2023-03-08T20:24:40.140Z,71.11
2023-03-08T20:27:08.985Z,71.09
2023-03-08T20:29:41.090Z,71.11
2023-03-08T20:32:11.218Z,71.21
2023-03-08T20:34:40.146Z,71.17
2023-03-08T20:37:09.073Z,71.23
2023-03-08T20:39:38.064Z,71.20
2023-03-08T20:42:07.253Z,71.36
2023-03-08T20:44:36.218Z,71.38
2023-03-08T20:47:05.153Z,71.40
2023-03-08T20:49:34.394Z,71.41
2023-03-08T20:52:03.634Z,71.39
2023-03-08T20:54:33.062Z,71.63
2023-03-08T20:57:02.066Z,71.66
2023-03-08T20:59:30.944Z,71.67
2023-03-08T21:01:59.678Z,71.57
2023-03-08T21:04:28.582Z,71.45
2023-03-08T21:06:57.497Z,71.42
2023-03-08T21:09:26.362Z,71.52
2023-03-08T21:11:55.066Z,71.55
2023-03-08T21:14:24.411Z,71.55
2023-03-08T21:16:53.580Z,71.57
2023-03-08T21:19:24.110Z,71.70
2023-03-08T21:21:53.717Z,71.71
2023-03-08T21:24:25.368Z,71.77
2023-03-08T21:26:57.012Z,71.89
2023-03-08T21:29:28.457Z,71.96
2023-03-08T21:32:00.246Z,71.97
2023-03-08T21:34:29.397Z,71.97
2023-03-08T21:36:57.904Z,71.93
2023-03-08T21:39:27.317Z,71.87
2023-03-08T21:41:57.310Z,72.02
2023-03-08T21:44:26.234Z,72.08
2023-03-08T21:46:56.082Z,72.03
2023-03-08T21:49:27.596Z,72.21
2023-03-08T21:51:58.191Z,72.08
2023-03-08T21:54:30.813Z,72.10
2023-03-08T21:57:00.613Z,72.26
2023-03-08T21:59:29.620Z,72.17
2023-03-08T22:01:59.037Z,72.19
2023-03-08T22:04:28.683Z,72.21
2023-03-08T22:06:57.949Z,72.26
2023-03-08T22:09:28.600Z,72.23
2023-03-08T22:11:58.684Z,72.22
2023-03-08T22:14:28.761Z,72.39
2023-03-08T22:16:58.241Z,72.31
2023-03-08T22:19:27.753Z,72.32
2023-03-08T22:21:59.172Z,72.42
2023-03-08T22:24:27.694Z,72.51
2023-03-08T22:26:56.436Z,72.50
2023-03-08T22:29:25.260Z,72.38
2023-03-08T22:31:53.931Z,72.43
2023-03-08T22:34:22.743Z,72.44
2023-03-08T22:36:51.681Z,72.53
2023-03-08T22:39:20.369Z,72.52
2023-03-08T22:41:49.108Z,72.43
2023-03-08T22:44:18.151Z,72.54
2023-03-08T22:46:46.846Z,72.71
2023-03-08T22:49:17.110Z,72.66
2023-03-08T22:51:46.126Z,72.79
2023-03-08T22:54:17.840Z,72.85
2023-03-08T22:56:49.686Z,72.55
2023-03-08T22:59:19.163Z,72.50
2023-03-08T23:01:48.532Z,72.66
2023-03-08T23:04:17.210Z,72.79
2023-03-08T23:06:47.900Z,72.77
2023-03-08T23:09:17.654Z,72.65
2023-03-08T23:11:47.399Z,72.61
2023-03-08T23:14:16.243Z,72.71
2023-03-08T23:16:46.609Z,72.63
2023-03-08T23:19:19.532Z,72.79
2023-03-08T23:21:49.167Z,72.89
2023-03-08T23:24:18.029Z,72.68
2023-03-08T23:26:46.939Z,72.81
2023-03-08T23:29:16.464Z,72.81
2023-03-08T23:31:46.789Z,72.94
2023-03-08T23:34:15.370Z,72.89
2023-03-08T23:36:44.879Z,72.97
2023-03-08T23:39:13.448Z,72.75
2023-03-08T23:41:42.509Z,72.83
2023-03-08T23:44:12.581Z,72.98
2023-03-08T23:46:41.200Z,73.03
2023-03-08T23:49:10.302Z,73.29
2023-03-08T23:51:39.589Z,73.26
2023-03-08T23:54:09.997Z,73.31
2023-03-08T23:56:40.644Z,73.37
2023-03-08T23:59:23.362Z,73.28
